Terminal Aerodrome Forecast
Issued by NWS

Home | Current Version | Previous Version | Graphics & Text | Print | Product List | Glossary On
Versions: 1 2 3 4 5 6 7 8 9 10 11 12 13 14 15 16 17 18 19
000
FTUS43 KICT 190520
TAFRSL
TAF
KRSL 190520Z 1906/2006 15007KT 6SM BR OVC012
     FM190900 17005KT 4SM BR BKN008
     FM191500 18006KT 4SM BR OVC012
     FM191800 19009KT P6SM BKN035 OVC050=

USA.gov is the U.S. government's official web portal to all federal, state and local government web resources and services.